sensor_id;sensor_type;location;lat;lon;timestamp;P1;durP1;ratioP1;P2;durP2;ratioP2
78156;SDS011;67400;49.360;8.266;2023-04-28T00:00:18;10.20;;;6.50;;
78156;SDS011;67400;49.360;8.266;2023-04-28T00:01:38;11.35;;;6.68;;
78156;SDS011;67400;49.360;8.266;2023-04-28T00:02:57;9.77;;;6.05;;
78156;SDS011;67400;49.360;8.266;2023-04-28T00:04:17;10.75;;;6.45;;
78156;SDS011;67400;49.360;8.266;2023-04-28T00:05:37;16.67;;;6.90;;
78156;SDS011;67400;49.360;8.266;2023-04-28T00:06:57;10.52;;;5.78;;
78156;SDS011;67400;49.360;8.266;2023-04-28T00:08:16;10.82;;;6.55;;
78156;SDS011;67400;49.360;8.266;2023-04-28T00:09:36;13.98;;;6.00;;
78156;SDS011;67400;49.360;8.266;2023-04-28T00:10:55;10.20;;;6.45;;
78156;SDS011;67400;49.360;8.266;2023-04-28T00:12:14;10.07;;;6.28;;
78156;SDS011;67400;49.360;8.266;2023-04-28T00:13:34;9.70;;;5.32;;
78156;SDS011;67400;49.360;8.266;2023-04-28T00:14:54;12.50;;;5.88;;
78156;SDS011;67400;49.360;8.266;2023-04-28T00:16:13;13.27;;;5.93;;
78156;SDS011;67400;49.360;8.266;2023-04-28T00:17:33;10.05;;;6.00;;
78156;SDS011;67400;49.360;8.266;2023-04-28T00:18:53;9.82;;;6.10;;
78156;SDS011;67400;49.360;8.266;2023-04-28T00:20:14;13.68;;;6.47;;
78156;SDS011;67400;49.360;8.266;2023-04-28T00:21:33;11.10;;;5.72;;
78156;SDS011;67400;49.360;8.266;2023-04-28T00:22:53;9.20;;;6.20;;
78156;SDS011;67400;49.360;8.266;2023-04-28T00:24:13;10.57;;;5.80;;
78156;SDS011;67400;49.360;8.266;2023-04-28T00:25:32;8.90;;;5.35;;
78156;SDS011;67400;49.360;8.266;2023-04-28T00:26:52;10.07;;;5.22;;
78156;SDS011;67400;49.360;8.266;2023-04-28T00:28:12;9.35;;;6.35;;
78156;SDS011;67400;49.360;8.266;2023-04-28T00:29:31;8.80;;;5.50;;
78156;SDS011;67400;49.360;8.266;2023-04-28T00:30:51;10.48;;;6.30;;
78156;SDS011;67400;49.360;8.266;2023-04-28T00:32:10;11.88;;;5.72;;
78156;SDS011;67400;49.360;8.266;2023-04-28T00:33:31;11.20;;;5.85;;
78156;SDS011;67400;49.360;8.266;2023-04-28T00:34:50;9.68;;;5.72;;
78156;SDS011;67400;49.360;8.266;2023-04-28T00:36:11;9.98;;;5.85;;
78156;SDS011;67400;49.360;8.266;2023-04-28T00:37:30;12.05;;;6.07;;
78156;SDS011;67400;49.360;8.266;2023-04-28T00:38:54;7.47;;;5.47;;
78156;SDS011;67400;49.360;8.266;2023-04-28T00:40:13;11.40;;;6.22;;
78156;SDS011;67400;49.360;8.266;2023-04-28T00:41:33;10.93;;;6.28;;
78156;SDS011;67400;49.360;8.266;2023-04-28T00:42:53;11.50;;;6.28;;
78156;SDS011;67400;49.360;8.266;2023-04-28T00:44:12;8.18;;;5.32;;
78156;SDS011;67400;49.360;8.266;2023-04-28T00:45:32;11.15;;;6.00;;
78156;SDS011;67400;49.360;8.266;2023-04-28T00:46:52;10.88;;;7.07;;
78156;SDS011;67400;49.360;8.266;2023-04-28T00:48:12;10.98;;;5.88;;
78156;SDS011;67400;49.360;8.266;2023-04-28T00:49:32;7.53;;;5.40;;
78156;SDS011;67400;49.360;8.266;2023-04-28T00:50:51;9.85;;;6.00;;
78156;SDS011;67400;49.360;8.266;2023-04-28T00:52:11;12.70;;;6.05;;
78156;SDS011;67400;49.360;8.266;2023-04-28T00:53:31;16.17;;;5.97;;
78156;SDS011;67400;49.360;8.266;2023-04-28T00:54:51;9.45;;;5.65;;
78156;SDS011;67400;49.360;8.266;2023-04-28T00:56:19;10.80;;;6.25;;
78156;SDS011;67400;49.360;8.266;2023-04-28T00:57:44;10.35;;;5.07;;
78156;SDS011;67400;49.360;8.266;2023-04-28T00:59:31;7.88;;;5.32;;
78156;SDS011;67400;49.360;8.266;2023-04-28T01:00:51;11.38;;;5.95;;
78156;SDS011;67400;49.360;8.266;2023-04-28T01:02:11;11.43;;;5.72;;
78156;SDS011;67400;49.360;8.266;2023-04-28T01:03:37;11.02;;;5.63;;
78156;SDS011;67400;49.360;8.266;2023-04-28T01:04:58;7.80;;;4.93;;
78156;SDS011;67400;49.360;8.266;2023-04-28T01:06:24;10.40;;;5.47;;
78156;SDS011;67400;49.360;8.266;2023-04-28T01:07:48;9.00;;;5.00;;
78156;SDS011;67400;49.360;8.266;2023-04-28T01:09:07;8.30;;;5.35;;
78156;SDS011;67400;49.360;8.266;2023-04-28T01:10:28;9.05;;;5.45;;
78156;SDS011;67400;49.360;8.266;2023-04-28T01:11:51;8.82;;;5.57;;
78156;SDS011;67400;49.360;8.266;2023-04-28T01:14:50;7.97;;;5.18;;
78156;SDS011;67400;49.360;8.266;2023-04-28T01:16:11;8.10;;;5.13;;
78156;SDS011;67400;49.360;8.266;2023-04-28T01:17:31;12.00;;;5.72;;
78156;SDS011;67400;49.360;8.266;2023-04-28T01:18:52;9.77;;;5.25;;
78156;SDS011;67400;49.360;8.266;2023-04-28T01:20:12;10.25;;;5.28;;
78156;SDS011;67400;49.360;8.266;2023-04-28T01:21:32;10.07;;;4.90;;
78156;SDS011;67400;49.360;8.266;2023-04-28T01:23:05;7.45;;;4.30;;
78156;SDS011;67400;49.360;8.266;2023-04-28T01:24:29;11.40;;;4.50;;
78156;SDS011;67400;49.360;8.266;2023-04-28T01:25:55;7.15;;;4.35;;
78156;SDS011;67400;49.360;8.266;2023-04-28T01:27:16;7.20;;;4.90;;
78156;SDS011;67400;49.360;8.266;2023-04-28T01:28:36;9.95;;;5.22;;
78156;SDS011;67400;49.360;8.266;2023-04-28T01:29:56;7.18;;;4.45;;
78156;SDS011;67400;49.360;8.266;2023-04-28T01:31:16;7.57;;;4.78;;
78156;SDS011;67400;49.360;8.266;2023-04-28T01:32:36;8.57;;;5.05;;
78156;SDS011;67400;49.360;8.266;2023-04-28T01:33:56;8.68;;;4.47;;
78156;SDS011;67400;49.360;8.266;2023-04-28T01:35:15;7.97;;;4.32;;
78156;SDS011;67400;49.360;8.266;2023-04-28T01:36:35;7.68;;;4.60;;
78156;SDS011;67400;49.360;8.266;2023-04-28T01:37:54;7.20;;;4.13;;
78156;SDS011;67400;49.360;8.266;2023-04-28T01:39:14;7.57;;;5.20;;
78156;SDS011;67400;49.360;8.266;2023-04-28T01:40:34;7.38;;;4.35;;
78156;SDS011;67400;49.360;8.266;2023-04-28T01:41:54;9.98;;;4.85;;
78156;SDS011;67400;49.360;8.266;2023-04-28T01:43:14;10.85;;;4.68;;
78156;SDS011;67400;49.360;8.266;2023-04-28T01:44:34;8.65;;;4.50;;
78156;SDS011;67400;49.360;8.266;2023-04-28T01:45:53;7.93;;;4.53;;
78156;SDS011;67400;49.360;8.266;2023-04-28T01:47:13;8.93;;;4.60;;
78156;SDS011;67400;49.360;8.266;2023-04-28T01:48:33;7.47;;;4.55;;
78156;SDS011;67400;49.360;8.266;2023-04-28T01:49:53;8.38;;;4.43;;
78156;SDS011;67400;49.360;8.266;2023-04-28T01:51:13;7.78;;;4.38;;
78156;SDS011;67400;49.360;8.266;2023-04-28T01:52:33;8.68;;;5.13;;
78156;SDS011;67400;49.360;8.266;2023-04-28T01:53:53;7.47;;;4.30;;
78156;SDS011;67400;49.360;8.266;2023-04-28T01:55:13;8.13;;;4.63;;
78156;SDS011;67400;49.360;8.266;2023-04-28T01:56:33;9.13;;;4.32;;
78156;SDS011;67400;49.360;8.266;2023-04-28T01:57:54;10.00;;;4.70;;
78156;SDS011;67400;49.360;8.266;2023-04-28T01:59:16;9.40;;;4.63;;
78156;SDS011;67400;49.360;8.266;2023-04-28T02:00:38;8.88;;;4.80;;
78156;SDS011;67400;49.360;8.266;2023-04-28T02:01:58;9.45;;;4.82;;
78156;SDS011;67400;49.360;8.266;2023-04-28T02:03:18;8.05;;;5.13;;
78156;SDS011;67400;49.360;8.266;2023-04-28T02:04:38;13.00;;;5.53;;
78156;SDS011;67400;49.360;8.266;2023-04-28T02:05:58;8.25;;;4.63;;
78156;SDS011;67400;49.360;8.266;2023-04-28T02:07:17;8.25;;;4.85;;
78156;SDS011;67400;49.360;8.266;2023-04-28T02:08:37;9.27;;;4.95;;
78156;SDS011;67400;49.360;8.266;2023-04-28T02:09:57;8.93;;;5.40;;
78156;SDS011;67400;49.360;8.266;2023-04-28T02:11:17;8.35;;;4.90;;
78156;SDS011;67400;49.360;8.266;2023-04-28T02:12:37;10.65;;;5.20;;
78156;SDS011;67400;49.360;8.266;2023-04-28T02:13:56;9.63;;;5.20;;
78156;SDS011;67400;49.360;8.266;2023-04-28T02:15:16;8.32;;;4.78;;
78156;SDS011;67400;49.360;8.266;2023-04-28T02:16:36;11.85;;;5.07;;
78156;SDS011;67400;49.360;8.266;2023-04-28T02:17:56;8.30;;;5.07;;
78156;SDS011;67400;49.360;8.266;2023-04-28T02:19:15;8.98;;;5.15;;
78156;SDS011;67400;49.360;8.266;2023-04-28T02:20:35;10.98;;;5.10;;
78156;SDS011;67400;49.360;8.266;2023-04-28T02:21:54;10.10;;;5.40;;
78156;SDS011;67400;49.360;8.266;2023-04-28T02:23:14;12.10;;;5.72;;
78156;SDS011;67400;49.360;8.266;2023-04-28T02:24:34;11.60;;;6.25;;
78156;SDS011;67400;49.360;8.266;2023-04-28T02:26:01;8.50;;;5.75;;
78156;SDS011;67400;49.360;8.266;2023-04-28T02:27:21;11.00;;;5.60;;
78156;SDS011;67400;49.360;8.266;2023-04-28T02:28:41;9.50;;;6.25;;
78156;SDS011;67400;49.360;8.266;2023-04-28T02:30:01;10.60;;;5.88;;
78156;SDS011;67400;49.360;8.266;2023-04-28T02:31:21;11.80;;;6.30;;
78156;SDS011;67400;49.360;8.266;2023-04-28T02:32:40;12.70;;;6.68;;
78156;SDS011;67400;49.360;8.266;2023-04-28T02:34:00;9.90;;;5.55;;
78156;SDS011;67400;49.360;8.266;2023-04-28T02:35:20;9.38;;;5.75;;
78156;SDS011;67400;49.360;8.266;2023-04-28T02:36:39;13.60;;;7.00;;
78156;SDS011;67400;49.360;8.266;2023-04-28T02:37:59;11.27;;;6.60;;
78156;SDS011;67400;49.360;8.266;2023-04-28T02:39:19;10.02;;;6.00;;
78156;SDS011;67400;49.360;8.266;2023-04-28T02:40:40;12.90;;;6.70;;
78156;SDS011;67400;49.360;8.266;2023-04-28T02:42:00;10.20;;;6.28;;
78156;SDS011;67400;49.360;8.266;2023-04-28T02:43:23;15.43;;;7.00;;
78156;SDS011;67400;49.360;8.266;2023-04-28T02:44:42;11.57;;;6.35;;
78156;SDS011;67400;49.360;8.266;2023-04-28T02:46:03;10.35;;;6.68;;
78156;SDS011;67400;49.360;8.266;2023-04-28T02:47:23;11.20;;;6.38;;
78156;SDS011;67400;49.360;8.266;2023-04-28T02:48:43;10.30;;;6.72;;
78156;SDS011;67400;49.360;8.266;2023-04-28T02:50:04;12.40;;;6.75;;
78156;SDS011;67400;49.360;8.266;2023-04-28T02:51:24;12.45;;;6.82;;
78156;SDS011;67400;49.360;8.266;2023-04-28T02:52:44;10.95;;;6.35;;
78156;SDS011;67400;49.360;8.266;2023-04-28T02:54:04;13.20;;;6.55;;
78156;SDS011;67400;49.360;8.266;2023-04-28T02:55:24;9.63;;;6.25;;
78156;SDS011;67400;49.360;8.266;2023-04-28T02:56:46;11.98;;;6.57;;
78156;SDS011;67400;49.360;8.266;2023-04-28T02:58:05;12.38;;;6.65;;
78156;SDS011;67400;49.360;8.266;2023-04-28T02:59:25;12.27;;;7.32;;
78156;SDS011;67400;49.360;8.266;2023-04-28T03:00:45;10.75;;;6.32;;
78156;SDS011;67400;49.360;8.266;2023-04-28T03:02:05;12.70;;;7.13;;
78156;SDS011;67400;49.360;8.266;2023-04-28T03:03:24;16.65;;;7.60;;
78156;SDS011;67400;49.360;8.266;2023-04-28T03:04:44;10.07;;;6.38;;
78156;SDS011;67400;49.360;8.266;2023-04-28T03:06:04;13.32;;;8.20;;
78156;SDS011;67400;49.360;8.266;2023-04-28T03:07:24;14.18;;;7.53;;
78156;SDS011;67400;49.360;8.266;2023-04-28T03:08:44;12.98;;;7.45;;
78156;SDS011;67400;49.360;8.266;2023-04-28T03:10:03;18.42;;;8.00;;
78156;SDS011;67400;49.360;8.266;2023-04-28T03:11:23;13.32;;;7.57;;
78156;SDS011;67400;49.360;8.266;2023-04-28T03:12:44;13.23;;;7.38;;
78156;SDS011;67400;49.360;8.266;2023-04-28T03:14:03;12.90;;;7.25;;
78156;SDS011;67400;49.360;8.266;2023-04-28T03:15:23;14.25;;;7.55;;
78156;SDS011;67400;49.360;8.266;2023-04-28T03:16:44;14.20;;;8.43;;
78156;SDS011;67400;49.360;8.266;2023-04-28T03:18:04;14.88;;;7.53;;
78156;SDS011;67400;49.360;8.266;2023-04-28T03:19:24;13.07;;;7.47;;
78156;SDS011;67400;49.360;8.266;2023-04-28T03:20:45;11.65;;;6.97;;
78156;SDS011;67400;49.360;8.266;2023-04-28T03:22:04;17.45;;;7.25;;
78156;SDS011;67400;49.360;8.266;2023-04-28T03:23:25;12.27;;;6.95;;
78156;SDS011;67400;49.360;8.266;2023-04-28T03:24:44;14.02;;;7.45;;
78156;SDS011;67400;49.360;8.266;2023-04-28T03:26:04;13.65;;;7.07;;
78156;SDS011;67400;49.360;8.266;2023-04-28T03:27:24;12.50;;;7.53;;
78156;SDS011;67400;49.360;8.266;2023-04-28T03:28:46;12.63;;;7.25;;
78156;SDS011;67400;49.360;8.266;2023-04-28T03:30:06;10.15;;;6.97;;
78156;SDS011;67400;49.360;8.266;2023-04-28T03:31:26;14.07;;;8.45;;
78156;SDS011;67400;49.360;8.266;2023-04-28T03:32:45;13.68;;;6.82;;
78156;SDS011;67400;49.360;8.266;2023-04-28T03:34:06;14.93;;;7.68;;
78156;SDS011;67400;49.360;8.266;2023-04-28T03:35:25;12.50;;;7.38;;
78156;SDS011;67400;49.360;8.266;2023-04-28T03:36:46;10.60;;;7.10;;
78156;SDS011;67400;49.360;8.266;2023-04-28T03:38:14;11.90;;;6.90;;
78156;SDS011;67400;49.360;8.266;2023-04-28T03:39:34;11.60;;;7.38;;
78156;SDS011;67400;49.360;8.266;2023-04-28T03:40:54;10.32;;;7.05;;
78156;SDS011;67400;49.360;8.266;2023-04-28T03:42:34;13.13;;;6.75;;
78156;SDS011;67400;49.360;8.266;2023-04-28T03:44:01;12.73;;;7.43;;
78156;SDS011;67400;49.360;8.266;2023-04-28T03:46:46;10.70;;;7.05;;
78156;SDS011;67400;49.360;8.266;2023-04-28T03:48:06;12.27;;;7.70;;
78156;SDS011;67400;49.360;8.266;2023-04-28T03:49:26;12.80;;;7.53;;
78156;SDS011;67400;49.360;8.266;2023-04-28T03:50:46;11.55;;;6.90;;
78156;SDS011;67400;49.360;8.266;2023-04-28T03:52:06;13.65;;;7.75;;
78156;SDS011;67400;49.360;8.266;2023-04-28T03:53:26;13.50;;;7.43;;
78156;SDS011;67400;49.360;8.266;2023-04-28T03:54:46;13.07;;;7.45;;
78156;SDS011;67400;49.360;8.266;2023-04-28T03:56:05;14.30;;;7.80;;
78156;SDS011;67400;49.360;8.266;2023-04-28T03:57:25;12.73;;;6.68;;
78156;SDS011;67400;49.360;8.266;2023-04-28T03:58:45;11.43;;;6.72;;
78156;SDS011;67400;49.360;8.266;2023-04-28T04:00:05;14.57;;;7.55;;
78156;SDS011;67400;49.360;8.266;2023-04-28T04:01:33;12.40;;;7.43;;
78156;SDS011;67400;49.360;8.266;2023-04-28T04:02:53;10.73;;;7.50;;
78156;SDS011;67400;49.360;8.266;2023-04-28T04:04:13;10.77;;;7.25;;
78156;SDS011;67400;49.360;8.266;2023-04-28T04:05:33;12.52;;;7.40;;
78156;SDS011;67400;49.360;8.266;2023-04-28T04:06:53;10.70;;;7.05;;
78156;SDS011;67400;49.360;8.266;2023-04-28T04:08:12;11.40;;;6.93;;
78156;SDS011;67400;49.360;8.266;2023-04-28T04:09:32;10.05;;;6.43;;
78156;SDS011;67400;49.360;8.266;2023-04-28T04:10:52;11.45;;;6.95;;
78156;SDS011;67400;49.360;8.266;2023-04-28T04:12:13;11.77;;;7.20;;
78156;SDS011;67400;49.360;8.266;2023-04-28T04:13:33;9.88;;;6.85;;
78156;SDS011;67400;49.360;8.266;2023-04-28T04:14:55;12.90;;;6.38;;
78156;SDS011;67400;49.360;8.266;2023-04-28T04:16:14;8.57;;;6.03;;
78156;SDS011;67400;49.360;8.266;2023-04-28T04:17:34;9.20;;;6.15;;
78156;SDS011;67400;49.360;8.266;2023-04-28T04:18:54;9.05;;;6.50;;
78156;SDS011;67400;49.360;8.266;2023-04-28T04:20:19;11.77;;;7.15;;
78156;SDS011;67400;49.360;8.266;2023-04-28T04:21:39;11.10;;;6.88;;
78156;SDS011;67400;49.360;8.266;2023-04-28T04:22:59;14.30;;;7.65;;
78156;SDS011;67400;49.360;8.266;2023-04-28T04:24:19;17.17;;;6.95;;
78156;SDS011;67400;49.360;8.266;2023-04-28T04:25:40;12.77;;;6.85;;
78156;SDS011;67400;49.360;8.266;2023-04-28T04:27:01;12.73;;;6.25;;
78156;SDS011;67400;49.360;8.266;2023-04-28T04:28:25;12.32;;;7.40;;
78156;SDS011;67400;49.360;8.266;2023-04-28T04:29:45;10.45;;;6.97;;
78156;SDS011;67400;49.360;8.266;2023-04-28T04:31:07;13.05;;;7.20;;
78156;SDS011;67400;49.360;8.266;2023-04-28T04:32:27;13.07;;;7.60;;
78156;SDS011;67400;49.360;8.266;2023-04-28T04:33:47;12.80;;;7.30;;
78156;SDS011;67400;49.360;8.266;2023-04-28T04:35:07;12.40;;;6.95;;
78156;SDS011;67400;49.360;8.266;2023-04-28T04:36:27;12.02;;;6.63;;
78156;SDS011;67400;49.360;8.266;2023-04-28T04:37:46;12.15;;;6.90;;
78156;SDS011;67400;49.360;8.266;2023-04-28T04:39:08;14.18;;;7.68;;
78156;SDS011;67400;49.360;8.266;2023-04-28T04:40:27;9.18;;;6.65;;
78156;SDS011;67400;49.360;8.266;2023-04-28T04:41:47;14.35;;;7.55;;
78156;SDS011;67400;49.360;8.266;2023-04-28T04:43:23;12.20;;;7.10;;
78156;SDS011;67400;49.360;8.266;2023-04-28T04:44:43;12.80;;;7.00;;
78156;SDS011;67400;49.360;8.266;2023-04-28T04:46:10;10.63;;;6.80;;
78156;SDS011;67400;49.360;8.266;2023-04-28T04:47:30;14.85;;;7.35;;
78156;SDS011;67400;49.360;8.266;2023-04-28T04:48:50;12.55;;;7.43;;
78156;SDS011;67400;49.360;8.266;2023-04-28T04:50:10;9.82;;;6.93;;
78156;SDS011;67400;49.360;8.266;2023-04-28T04:51:29;12.38;;;7.20;;
78156;SDS011;67400;49.360;8.266;2023-04-28T04:52:50;11.32;;;7.55;;
78156;SDS011;67400;49.360;8.266;2023-04-28T04:54:09;11.13;;;7.13;;
78156;SDS011;67400;49.360;8.266;2023-04-28T04:55:32;10.80;;;7.15;;
78156;SDS011;67400;49.360;8.266;2023-04-28T04:56:52;12.13;;;7.25;;
78156;SDS011;67400;49.360;8.266;2023-04-28T04:58:25;12.10;;;7.40;;
78156;SDS011;67400;49.360;8.266;2023-04-28T05:00:05;10.75;;;7.30;;
78156;SDS011;67400;49.360;8.266;2023-04-28T05:01:25;14.38;;;7.60;;
78156;SDS011;67400;49.360;8.266;2023-04-28T05:02:45;12.77;;;7.22;;
78156;SDS011;67400;49.360;8.266;2023-04-28T05:04:07;11.85;;;6.88;;
78156;SDS011;67400;49.360;8.266;2023-04-28T05:05:26;11.65;;;7.70;;
78156;SDS011;67400;49.360;8.266;2023-04-28T05:06:56;10.73;;;7.03;;
78156;SDS011;67400;49.360;8.266;2023-04-28T05:08:16;12.55;;;8.13;;
78156;SDS011;67400;49.360;8.266;2023-04-28T05:09:36;13.70;;;7.72;;
78156;SDS011;67400;49.360;8.266;2023-04-28T05:10:56;12.32;;;7.72;;
78156;SDS011;67400;49.360;8.266;2023-04-28T05:12:16;10.57;;;6.60;;
78156;SDS011;67400;49.360;8.266;2023-04-28T05:13:36;14.02;;;7.43;;
78156;SDS011;67400;49.360;8.266;2023-04-28T05:14:58;13.93;;;8.40;;
78156;SDS011;67400;49.360;8.266;2023-04-28T05:16:18;12.35;;;7.93;;
78156;SDS011;67400;49.360;8.266;2023-04-28T05:17:53;13.15;;;7.25;;
78156;SDS011;67400;49.360;8.266;2023-04-28T05:19:13;12.57;;;8.23;;
78156;SDS011;67400;49.360;8.266;2023-04-28T05:20:33;11.45;;;8.13;;
78156;SDS011;67400;49.360;8.266;2023-04-28T05:21:53;11.95;;;7.95;;
78156;SDS011;67400;49.360;8.266;2023-04-28T05:23:14;12.02;;;7.55;;
78156;SDS011;67400;49.360;8.266;2023-04-28T05:24:34;15.25;;;7.72;;
78156;SDS011;67400;49.360;8.266;2023-04-28T05:25:54;13.57;;;7.88;;
78156;SDS011;67400;49.360;8.266;2023-04-28T05:27:14;14.65;;;7.55;;
78156;SDS011;67400;49.360;8.266;2023-04-28T05:28:34;15.98;;;7.70;;
78156;SDS011;67400;49.360;8.266;2023-04-28T05:29:54;11.73;;;8.20;;
78156;SDS011;67400;49.360;8.266;2023-04-28T05:31:13;13.32;;;7.93;;
78156;SDS011;67400;49.360;8.266;2023-04-28T05:32:34;14.32;;;7.78;;
78156;SDS011;67400;49.360;8.266;2023-04-28T05:33:54;19.58;;;8.52;;
78156;SDS011;67400;49.360;8.266;2023-04-28T05:35:14;15.13;;;7.63;;
78156;SDS011;67400;49.360;8.266;2023-04-28T05:36:33;14.70;;;7.95;;
78156;SDS011;67400;49.360;8.266;2023-04-28T05:37:54;15.60;;;8.75;;
78156;SDS011;67400;49.360;8.266;2023-04-28T05:39:13;16.15;;;9.48;;
78156;SDS011;67400;49.360;8.266;2023-04-28T05:40:34;16.95;;;8.70;;
78156;SDS011;67400;49.360;8.266;2023-04-28T05:41:53;14.73;;;9.60;;
78156;SDS011;67400;49.360;8.266;2023-04-28T05:43:13;14.80;;;8.55;;
78156;SDS011;67400;49.360;8.266;2023-04-28T05:44:34;13.55;;;8.80;;
78156;SDS011;67400;49.360;8.266;2023-04-28T05:45:54;18.05;;;9.68;;
78156;SDS011;67400;49.360;8.266;2023-04-28T05:47:14;19.48;;;9.48;;
78156;SDS011;67400;49.360;8.266;2023-04-28T05:48:33;15.15;;;8.80;;
78156;SDS011;67400;49.360;8.266;2023-04-28T05:49:53;14.98;;;8.50;;
78156;SDS011;67400;49.360;8.266;2023-04-28T05:51:13;17.17;;;9.68;;
78156;SDS011;67400;49.360;8.266;2023-04-28T05:52:33;16.33;;;9.45;;
78156;SDS011;67400;49.360;8.266;2023-04-28T05:53:52;17.02;;;8.52;;
78156;SDS011;67400;49.360;8.266;2023-04-28T05:55:12;16.58;;;9.82;;
78156;SDS011;67400;49.360;8.266;2023-04-28T05:56:32;15.80;;;8.80;;
78156;SDS011;67400;49.360;8.266;2023-04-28T05:57:53;18.02;;;10.40;;
78156;SDS011;67400;49.360;8.266;2023-04-28T05:59:14;17.58;;;10.32;;
78156;SDS011;67400;49.360;8.266;2023-04-28T06:00:33;17.23;;;9.32;;
78156;SDS011;67400;49.360;8.266;2023-04-28T06:01:53;19.08;;;10.90;;
78156;SDS011;67400;49.360;8.266;2023-04-28T06:03:13;19.35;;;10.68;;
78156;SDS011;67400;49.360;8.266;2023-04-28T06:04:37;17.95;;;10.55;;
78156;SDS011;67400;49.360;8.266;2023-04-28T06:05:58;19.90;;;10.43;;
78156;SDS011;67400;49.360;8.266;2023-04-28T06:07:18;19.48;;;10.32;;
78156;SDS011;67400;49.360;8.266;2023-04-28T06:08:38;19.00;;;10.82;;
78156;SDS011;67400;49.360;8.266;2023-04-28T06:09:58;22.30;;;11.02;;
78156;SDS011;67400;49.360;8.266;2023-04-28T06:11:18;20.40;;;10.75;;
78156;SDS011;67400;49.360;8.266;2023-04-28T06:12:40;17.42;;;11.15;;
78156;SDS011;67400;49.360;8.266;2023-04-28T06:14:00;16.63;;;10.07;;
78156;SDS011;67400;49.360;8.266;2023-04-28T06:15:20;17.20;;;10.60;;
78156;SDS011;67400;49.360;8.266;2023-04-28T06:16:39;16.40;;;9.40;;
78156;SDS011;67400;49.360;8.266;2023-04-28T06:17:59;21.52;;;11.10;;
78156;SDS011;67400;49.360;8.266;2023-04-28T06:19:19;19.33;;;10.45;;
78156;SDS011;67400;49.360;8.266;2023-04-28T06:20:40;17.92;;;10.70;;
78156;SDS011;67400;49.360;8.266;2023-04-28T06:21:59;21.35;;;11.43;;
78156;SDS011;67400;49.360;8.266;2023-04-28T06:23:19;19.17;;;10.93;;
78156;SDS011;67400;49.360;8.266;2023-04-28T06:24:40;21.05;;;11.00;;
78156;SDS011;67400;49.360;8.266;2023-04-28T06:26:03;18.45;;;11.38;;
78156;SDS011;67400;49.360;8.266;2023-04-28T06:27:23;19.17;;;10.77;;
78156;SDS011;67400;49.360;8.266;2023-04-28T06:28:43;18.48;;;11.02;;
78156;SDS011;67400;49.360;8.266;2023-04-28T06:30:03;21.38;;;11.90;;
78156;SDS011;67400;49.360;8.266;2023-04-28T06:31:23;20.20;;;11.77;;
78156;SDS011;67400;49.360;8.266;2023-04-28T06:32:45;18.88;;;11.73;;
78156;SDS011;67400;49.360;8.266;2023-04-28T06:34:05;18.20;;;11.65;;
78156;SDS011;67400;49.360;8.266;2023-04-28T06:35:26;21.92;;;12.48;;
78156;SDS011;67400;49.360;8.266;2023-04-28T06:36:47;19.17;;;12.18;;
78156;SDS011;67400;49.360;8.266;2023-04-28T06:38:06;21.23;;;11.60;;
78156;SDS011;67400;49.360;8.266;2023-04-28T06:39:26;22.63;;;11.68;;
78156;SDS011;67400;49.360;8.266;2023-04-28T06:40:46;25.90;;;12.27;;
78156;SDS011;67400;49.360;8.266;2023-04-28T06:42:06;22.00;;;11.55;;
78156;SDS011;67400;49.360;8.266;2023-04-28T06:43:28;22.58;;;11.70;;
78156;SDS011;67400;49.360;8.266;2023-04-28T06:44:57;18.88;;;11.23;;
78156;SDS011;67400;49.360;8.266;2023-04-28T06:46:19;18.33;;;11.82;;
78156;SDS011;67400;49.360;8.266;2023-04-28T06:47:39;19.23;;;11.73;;
78156;SDS011;67400;49.360;8.266;2023-04-28T06:49:02;18.75;;;10.90;;
78156;SDS011;67400;49.360;8.266;2023-04-28T06:50:22;20.38;;;11.77;;
78156;SDS011;67400;49.360;8.266;2023-04-28T06:51:42;20.02;;;10.95;;
78156;SDS011;67400;49.360;8.266;2023-04-28T06:53:02;19.95;;;11.82;;
78156;SDS011;67400;49.360;8.266;2023-04-28T06:54:22;22.58;;;11.85;;
78156;SDS011;67400;49.360;8.266;2023-04-28T06:55:42;22.00;;;11.63;;
78156;SDS011;67400;49.360;8.266;2023-04-28T06:57:01;19.48;;;11.63;;
78156;SDS011;67400;49.360;8.266;2023-04-28T06:58:21;21.23;;;11.38;;
78156;SDS011;67400;49.360;8.266;2023-04-28T06:59:41;25.15;;;11.90;;
78156;SDS011;67400;49.360;8.266;2023-04-28T07:01:01;18.77;;;10.50;;
78156;SDS011;67400;49.360;8.266;2023-04-28T07:02:23;20.50;;;11.38;;
78156;SDS011;67400;49.360;8.266;2023-04-28T07:03:42;18.33;;;11.57;;
78156;SDS011;67400;49.360;8.266;2023-04-28T07:05:02;23.50;;;11.43;;
78156;SDS011;67400;49.360;8.266;2023-04-28T07:06:23;20.60;;;11.30;;
78156;SDS011;67400;49.360;8.266;2023-04-28T07:07:45;25.05;;;12.80;;
78156;SDS011;67400;49.360;8.266;2023-04-28T07:09:05;29.33;;;12.48;;
78156;SDS011;67400;49.360;8.266;2023-04-28T07:10:25;20.48;;;11.82;;
78156;SDS011;67400;49.360;8.266;2023-04-28T07:11:45;19.02;;;11.25;;
78156;SDS011;67400;49.360;8.266;2023-04-28T07:13:04;20.33;;;11.23;;
78156;SDS011;67400;49.360;8.266;2023-04-28T07:14:24;24.33;;;12.02;;
78156;SDS011;67400;49.360;8.266;2023-04-28T07:15:43;20.83;;;11.27;;
78156;SDS011;67400;49.360;8.266;2023-04-28T07:17:03;17.40;;;10.20;;
78156;SDS011;67400;49.360;8.266;2023-04-28T07:18:23;17.52;;;10.27;;
78156;SDS011;67400;49.360;8.266;2023-04-28T07:19:42;16.30;;;9.65;;
78156;SDS011;67400;49.360;8.266;2023-04-28T07:21:02;15.57;;;10.60;;
78156;SDS011;67400;49.360;8.266;2023-04-28T07:22:21;20.23;;;10.93;;
78156;SDS011;67400;49.360;8.266;2023-04-28T07:23:40;21.35;;;11.20;;
78156;SDS011;67400;49.360;8.266;2023-04-28T07:25:00;18.63;;;10.73;;
78156;SDS011;67400;49.360;8.266;2023-04-28T07:26:20;19.02;;;10.27;;
78156;SDS011;67400;49.360;8.266;2023-04-28T07:27:40;18.13;;;10.55;;
78156;SDS011;67400;49.360;8.266;2023-04-28T07:28:59;16.02;;;9.50;;
78156;SDS011;67400;49.360;8.266;2023-04-28T07:30:19;20.02;;;11.10;;
78156;SDS011;67400;49.360;8.266;2023-04-28T07:31:39;14.13;;;9.68;;
78156;SDS011;67400;49.360;8.266;2023-04-28T07:32:59;17.60;;;9.30;;
78156;SDS011;67400;49.360;8.266;2023-04-28T07:34:19;16.05;;;9.55;;
78156;SDS011;67400;49.360;8.266;2023-04-28T07:35:39;15.57;;;9.20;;
78156;SDS011;67400;49.360;8.266;2023-04-28T07:36:58;15.63;;;9.45;;
78156;SDS011;67400;49.360;8.266;2023-04-28T07:38:19;14.43;;;9.38;;
78156;SDS011;67400;49.360;8.266;2023-04-28T07:39:38;13.80;;;8.80;;
78156;SDS011;67400;49.360;8.266;2023-04-28T07:40:59;17.00;;;9.40;;
78156;SDS011;67400;49.360;8.266;2023-04-28T07:42:19;12.52;;;8.35;;
78156;SDS011;67400;49.360;8.266;2023-04-28T07:43:39;13.18;;;8.80;;
78156;SDS011;67400;49.360;8.266;2023-04-28T07:44:58;15.77;;;8.98;;
78156;SDS011;67400;49.360;8.266;2023-04-28T07:46:18;12.45;;;8.52;;
78156;SDS011;67400;49.360;8.266;2023-04-28T07:47:38;13.60;;;8.88;;
78156;SDS011;67400;49.360;8.266;2023-04-28T07:48:58;14.43;;;8.73;;
78156;SDS011;67400;49.360;8.266;2023-04-28T07:50:18;12.13;;;8.10;;
78156;SDS011;67400;49.360;8.266;2023-04-28T07:51:37;15.10;;;8.15;;
78156;SDS011;67400;49.360;8.266;2023-04-28T07:52:57;13.27;;;8.13;;
78156;SDS011;67400;49.360;8.266;2023-04-28T07:54:17;15.40;;;8.98;;
78156;SDS011;67400;49.360;8.266;2023-04-28T07:55:36;16.15;;;8.90;;
78156;SDS011;67400;49.360;8.266;2023-04-28T07:56:59;13.63;;;7.43;;
78156;SDS011;67400;49.360;8.266;2023-04-28T07:58:18;13.35;;;8.57;;
78156;SDS011;67400;49.360;8.266;2023-04-28T07:59:39;12.38;;;8.48;;
78156;SDS011;67400;49.360;8.266;2023-04-28T08:00:58;14.18;;;8.32;;
78156;SDS011;67400;49.360;8.266;2023-04-28T08:02:18;10.95;;;7.40;;